Time;durP1;ratioP1;P1;durP2;ratioP2;P2;SDS_P1;SDS_P2;PMS_P1;PMS_P2;Temp;Humidity;BMP_temperature;BMP_pressure;BME280_temperature;BME280_humidity;BME280_pressure;Samples;Min_cycle;Max_cycle;Signal;HPM_P1;HPM_P2
2022/07/22 00:01:57;;;;;;;;;;;19.10;99.90;;;;;;5073829;28;19991;-82
2022/07/22 00:04:22;;;;;;;;;;;18.90;99.90;;;;;;5073450;28;19936;-82
2022/07/22 00:06:48;;;;;;;;;;;19.00;99.90;;;;;;5073494;28;19908;-81
2022/07/22 00:09:13;;;;;;;;;;;18.90;99.90;;;;;;5074269;28;19908;-80
2022/07/22 00:11:39;;;;;;;;;;;19.10;99.90;;;;;;5073877;28;19932;-82
2022/07/22 00:14:04;;;;;;;;;;;18.90;99.90;;;;;;5073661;28;19916;-81
2022/07/22 00:16:30;;;;;;;;;;;19.00;99.90;;;;;;5074173;28;19919;-82
2022/07/22 00:18:56;;;;;;;;;;;19.10;99.90;;;;;;5073881;28;19908;-83
2022/07/22 00:21:21;;;;;;;;;;;19.20;99.90;;;;;;5074175;28;19916;-79
2022/07/22 00:23:47;;;;;;;;;;;19.30;99.90;;;;;;5073780;28;19908;-83
2022/07/22 00:26:12;;;;;;;;;;;19.20;99.90;;;;;;5073497;28;19956;-80
2022/07/22 00:28:38;;;;;;;;;;;19.10;99.90;;;;;;5073752;28;19931;-83
2022/07/22 00:31:04;;;;;;;;;;;19.00;99.90;;;;;;5073509;28;19991;-83
2022/07/22 00:33:29;;;;;;;;;;;19.00;99.90;;;;;;5073618;28;19919;-80
2022/07/22 00:35:55;;;;;;;;;;;19.10;99.90;;;;;;5073529;28;20341;-82
2022/07/22 00:38:20;;;;;;;;;;;19.10;99.90;;;;;;5073365;28;19912;-82
2022/07/22 00:40:46;;;;;;;;;;;19.00;99.90;;;;;;5073405;28;19948;-80
2022/07/22 00:43:11;;;;;;;;;;;19.10;99.90;;;;;;5072977;28;20040;-80
2022/07/22 00:45:37;;;;;;;;;;;19.10;99.90;;;;;;5055420;28;19908;-83
2022/07/22 00:48:03;;;;;;;;;;;18.90;99.90;;;;;;5073207;28;19908;-83
2022/07/22 00:50:29;;;;;;;;;;;18.80;99.90;;;;;;5073559;28;19909;-80
2022/07/22 00:52:54;;;;;;;;;;;18.80;99.90;;;;;;5073245;28;19917;-80
2022/07/22 00:55:20;;;;;;;;;;;18.90;99.90;;;;;;5055228;28;19935;-81
2022/07/22 00:57:45;;;;;;;;;;;18.90;99.90;;;;;;5055356;28;20275;-80
2022/07/22 01:00:14;;;;;;;;;;;18.80;99.90;;;;;;5073119;28;20384;-80
2022/07/22 01:02:39;;;;;;;;;;;18.90;99.90;;;;;;5073681;28;19958;-81
2022/07/22 01:05:05;;;;;;;;;;;18.90;99.90;;;;;;5073126;28;19913;-84
2022/07/22 01:07:31;;;;;;;;;;;18.90;99.90;;;;;;5073258;28;20380;-81
2022/07/22 01:09:57;;;;;;;;;;;18.80;99.90;;;;;;5073160;28;19947;-82
2022/07/22 01:12:22;;;;;;;;;;;18.90;99.90;;;;;;5073210;28;20276;-82
2022/07/22 01:14:48;;;;;;;;;;;18.80;99.90;;;;;;5073019;28;19969;-81
2022/07/22 01:17:14;;;;;;;;;;;19.00;99.90;;;;;;5057384;28;19916;-81
2022/07/22 01:19:39;;;;;;;;;;;19.00;99.90;;;;;;5076509;28;20385;-83
2022/07/22 01:22:05;;;;;;;;;;;18.90;99.90;;;;;;5077067;28;19947;-81
2022/07/22 01:24:31;;;;;;;;;;;18.80;99.90;;;;;;5076558;28;19947;-80
2022/07/22 01:26:56;;;;;;;;;;;18.90;99.90;;;;;;5076926;28;19966;-82
2022/07/22 01:29:22;;;;;;;;;;;18.70;99.90;;;;;;5076535;28;20333;-83
2022/07/22 01:31:47;;;;;;;;;;;18.70;99.90;;;;;;5076501;28;19958;-80
2022/07/22 01:34:13;;;;;;;;;;;18.90;99.90;;;;;;5076266;28;19919;-81
2022/07/22 01:36:39;;;;;;;;;;;19.00;99.90;;;;;;5076364;28;19908;-83
2022/07/22 01:39:04;;;;;;;;;;;18.90;99.90;;;;;;5076263;28;19909;-83
2022/07/22 01:41:30;;;;;;;;;;;18.90;99.90;;;;;;5075968;28;20037;-81
2022/07/22 01:43:55;;;;;;;;;;;18.90;99.90;;;;;;5076406;28;19908;-81
2022/07/22 01:46:22;;;;;;;;;;;18.90;99.90;;;;;;5076102;28;19931;-81
2022/07/22 01:48:48;;;;;;;;;;;18.70;99.90;;;;;;5076027;28;20365;-82
2022/07/22 01:51:14;;;;;;;;;;;18.80;99.90;;;;;;5076354;28;19908;-81
2022/07/22 01:53:39;;;;;;;;;;;18.80;99.90;;;;;;5076034;28;19919;-83
2022/07/22 01:56:05;;;;;;;;;;;18.70;99.90;;;;;;5076026;28;19908;-80
2022/07/22 01:58:31;;;;;;;;;;;18.70;99.90;;;;;;5075822;28;19912;-82
2022/07/22 02:00:56;;;;;;;;;;;18.90;99.90;;;;;;5075823;28;19909;-83
2022/07/22 02:03:22;;;;;;;;;;;19.00;99.90;;;;;;5075776;28;19908;-82
2022/07/22 02:05:47;;;;;;;;;;;18.90;99.90;;;;;;5075703;28;19954;-82
2022/07/22 02:08:13;;;;;;;;;;;18.90;99.90;;;;;;5075701;28;20293;-83
2022/07/22 02:10:39;;;;;;;;;;;18.90;99.90;;;;;;5075690;28;20372;-80
2022/07/22 02:13:05;;;;;;;;;;;18.90;99.90;;;;;;5075611;28;19908;-80
2022/07/22 02:15:30;;;;;;;;;;;19.00;99.90;;;;;;5075595;28;19955;-81
2022/07/22 02:17:56;;;;;;;;;;;19.10;99.90;;;;;;5075492;28;20289;-83
2022/07/22 02:20:22;;;;;;;;;;;19.20;99.90;;;;;;5075518;28;19909;-83
2022/07/22 02:22:48;;;;;;;;;;;19.10;99.90;;;;;;5075948;28;19908;-79
2022/07/22 02:25:14;;;;;;;;;;;19.10;99.90;;;;;;5075428;28;20002;-80
2022/07/22 02:27:40;;;;;;;;;;;19.00;99.90;;;;;;5074605;28;19909;-81
2022/07/22 02:30:06;;;;;;;;;;;18.90;99.90;;;;;;5075245;28;19908;-82
2022/07/22 02:32:32;;;;;;;;;;;19.00;99.90;;;;;;5075426;28;20021;-82
2022/07/22 02:34:57;;;;;;;;;;;19.00;99.90;;;;;;5075074;28;20003;-81
2022/07/22 02:37:23;;;;;;;;;;;19.00;99.90;;;;;;5075248;28;20434;-83
2022/07/22 02:39:49;;;;;;;;;;;19.00;99.90;;;;;;5075016;28;19951;-82
2022/07/22 02:42:14;;;;;;;;;;;19.00;99.90;;;;;;5074735;28;20353;-81
2022/07/22 02:44:40;;;;;;;;;;;19.00;99.90;;;;;;5075248;28;19916;-82
2022/07/22 02:47:06;;;;;;;;;;;19.00;99.90;;;;;;5074919;28;20249;-80
2022/07/22 02:49:31;;;;;;;;;;;19.10;99.90;;;;;;5074849;28;20365;-83
2022/07/22 02:51:57;;;;;;;;;;;19.00;99.90;;;;;;5074755;28;20314;-81
2022/07/22 02:54:22;;;;;;;;;;;19.10;99.90;;;;;;5074734;28;19912;-82
2022/07/22 02:56:48;;;;;;;;;;;19.10;99.90;;;;;;5075122;28;20418;-79
2022/07/22 02:59:13;;;;;;;;;;;19.10;99.90;;;;;;5056725;28;19908;-81
2022/07/22 03:01:39;;;;;;;;;;;19.10;99.90;;;;;;5074569;28;19935;-81
2022/07/22 03:04:05;;;;;;;;;;;19.00;99.90;;;;;;5074587;28;19956;-82
2022/07/22 03:06:30;;;;;;;;;;;19.10;99.90;;;;;;5074979;28;19919;-80
2022/07/22 03:08:56;;;;;;;;;;;19.10;99.90;;;;;;5074403;28;19908;-82
2022/07/22 03:11:21;;;;;;;;;;;19.00;99.90;;;;;;5074409;28;19932;-82
2022/07/22 03:13:47;;;;;;;;;;;19.00;99.90;;;;;;5074291;28;19913;-82
2022/07/22 03:16:13;;;;;;;;;;;19.00;99.90;;;;;;5074313;28;20007;-80
2022/07/22 03:18:38;;;;;;;;;;;19.10;99.90;;;;;;5074332;28;19908;-82
2022/07/22 03:21:04;;;;;;;;;;;19.10;99.90;;;;;;5074330;28;19954;-81
2022/07/22 03:23:29;;;;;;;;;;;19.00;99.90;;;;;;5074818;28;19909;-82
2022/07/22 03:25:56;;;;;;;;;;;19.10;99.90;;;;;;5074181;28;19909;-81
2022/07/22 03:28:22;;;;;;;;;;;19.10;99.90;;;;;;5074146;28;19971;-82
2022/07/22 03:30:47;;;;;;;;;;;19.10;99.90;;;;;;5074112;28;19935;-79
2022/07/22 03:33:13;;;;;;;;;;;19.00;99.90;;;;;;5073965;28;20289;-83
2022/07/22 03:35:38;;;;;;;;;;;18.90;99.90;;;;;;5074262;28;19935;-80
2022/07/22 03:38:04;;;;;;;;;;;19.00;99.90;;;;;;5074023;28;19912;-82
2022/07/22 03:40:30;;;;;;;;;;;19.00;99.90;;;;;;5073155;28;19919;-79
2022/07/22 03:42:55;;;;;;;;;;;19.10;99.90;;;;;;5073725;28;20361;-84
2022/07/22 03:45:21;;;;;;;;;;;19.10;99.90;;;;;;5074015;28;19912;-80
2022/07/22 03:47:46;;;;;;;;;;;19.20;99.90;;;;;;5073750;28;19908;-81
2022/07/22 03:50:12;;;;;;;;;;;19.30;99.90;;;;;;5074097;28;20003;-81
2022/07/22 03:52:38;;;;;;;;;;;19.30;99.90;;;;;;5055942;28;19958;-83
2022/07/22 03:55:04;;;;;;;;;;;19.40;99.90;;;;;;5073729;28;20258;-84
2022/07/22 03:57:29;;;;;;;;;;;19.20;99.90;;;;;;5073749;28;19958;-79
2022/07/22 03:59:55;;;;;;;;;;;19.20;99.90;;;;;;5073745;28;19908;-81
2022/07/22 04:02:20;;;;;;;;;;;19.40;99.90;;;;;;5055715;28;19913;-82
2022/07/22 04:04:46;;;;;;;;;;;19.60;99.90;;;;;;5073697;28;20315;-82
2022/07/22 04:07:12;;;;;;;;;;;19.40;99.90;;;;;;5073795;28;19915;-80
2022/07/22 04:09:37;;;;;;;;;;;19.40;99.90;;;;;;5073845;28;20434;-82
2022/07/22 04:12:03;;;;;;;;;;;19.50;99.90;;;;;;5073622;28;19959;-80
2022/07/22 04:14:29;;;;;;;;;;;19.60;99.90;;;;;;5073395;28;20384;-83
2022/07/22 04:16:54;;;;;;;;;;;19.60;99.90;;;;;;5073516;28;19916;-82
2022/07/22 04:19:20;;;;;;;;;;;19.50;99.90;;;;;;5073782;28;20006;-82
2022/07/22 04:21:46;;;;;;;;;;;19.60;99.90;;;;;;5073957;28;19900;-83
2022/07/22 04:24:11;;;;;;;;;;;19.70;99.90;;;;;;5073438;28;19908;-82
2022/07/22 04:26:37;;;;;;;;;;;19.80;99.90;;;;;;5073840;28;19952;-84
2022/07/22 04:29:06;;;;;;;;;;;19.60;99.90;;;;;;5073478;28;20269;-80
2022/07/22 04:31:32;;;;;;;;;;;19.60;99.90;;;;;;5073700;28;19912;-80
2022/07/22 04:33:57;;;;;;;;;;;19.70;99.90;;;;;;5073445;28;19912;-82
2022/07/22 04:36:23;;;;;;;;;;;19.60;99.90;;;;;;5073360;28;20350;-83
2022/07/22 04:38:49;;;;;;;;;;;19.60;99.90;;;;;;5073389;28;19909;-84
2022/07/22 04:41:15;;;;;;;;;;;19.70;99.90;;;;;;5073109;28;19909;-83
2022/07/22 04:43:40;;;;;;;;;;;19.60;99.90;;;;;;5073415;28;20415;-82
2022/07/22 04:46:06;;;;;;;;;;;19.60;99.90;;;;;;5073342;28;19915;-81
2022/07/22 04:48:31;;;;;;;;;;;19.50;99.90;;;;;;5073481;28;19909;-79
2022/07/22 04:51:01;;;;;;;;;;;19.50;99.90;;;;;;5073635;28;19932;-80
2022/07/22 04:53:27;;;;;;;;;;;19.60;99.90;;;;;;5076987;28;20407;-82
2022/07/22 04:55:52;;;;;;;;;;;19.60;99.90;;;;;;5076988;28;19909;-81
2022/07/22 04:58:18;;;;;;;;;;;19.80;99.90;;;;;;5076923;28;20373;-79
2022/07/22 05:00:43;;;;;;;;;;;19.70;99.90;;;;;;5076890;28;20487;-83
2022/07/22 05:03:09;;;;;;;;;;;19.70;99.90;;;;;;5076879;28;19915;-80
2022/07/22 05:05:35;;;;;;;;;;;19.80;99.90;;;;;;5076788;28;20288;-84
2022/07/22 05:08:00;;;;;;;;;;;19.80;99.90;;;;;;5076753;28;19974;-81
2022/07/22 05:10:27;;;;;;;;;;;19.80;99.90;;;;;;5077253;28;20283;-81
2022/07/22 05:12:53;;;;;;;;;;;19.80;99.90;;;;;;5058701;28;19909;-83
2022/07/22 05:15:18;;;;;;;;;;;19.80;99.90;;;;;;5076558;28;19912;-80
2022/07/22 05:17:44;;;;;;;;;;;19.80;99.90;;;;;;5076545;28;19917;-79
2022/07/22 05:20:10;;;;;;;;;;;19.80;99.90;;;;;;5076615;28;19908;-83
2022/07/22 05:22:35;;;;;;;;;;;19.80;99.90;;;;;;5077105;28;20352;-82
2022/07/22 05:25:01;;;;;;;;;;;19.80;99.90;;;;;;5076729;28;19963;-82
2022/07/22 05:27:27;;;;;;;;;;;19.90;99.90;;;;;;5076604;28;19908;-80
2022/07/22 05:29:52;;;;;;;;;;;19.90;99.90;;;;;;5076342;28;19955;-79
2022/07/22 05:32:18;;;;;;;;;;;19.90;99.90;;;;;;5076340;28;19913;-82
2022/07/22 05:34:44;;;;;;;;;;;20.10;99.90;;;;;;5076259;28;19913;-83
2022/07/22 05:37:09;;;;;;;;;;;20.20;99.90;;;;;;5076295;28;20311;-81
2022/07/22 05:39:35;;;;;;;;;;;20.20;99.90;;;;;;5076312;28;20270;-81
2022/07/22 05:42:00;;;;;;;;;;;20.20;99.90;;;;;;5075908;28;19974;-82
2022/07/22 05:44:26;;;;;;;;;;;20.20;99.90;;;;;;5058166;28;20284;-84
2022/07/22 05:46:51;;;;;;;;;;;20.30;99.90;;;;;;5076463;28;19908;-80
2022/07/22 05:49:17;;;;;;;;;;;20.30;99.90;;;;;;5076029;28;20003;-80
2022/07/22 05:51:43;;;;;;;;;;;20.30;99.90;;;;;;5076044;28;19908;-82
2022/07/22 05:54:08;;;;;;;;;;;20.30;99.90;;;;;;5075788;28;19913;-80
2022/07/22 05:56:34;;;;;;;;;;;20.40;99.90;;;;;;5075975;28;19909;-79
2022/07/22 05:59:00;;;;;;;;;;;20.40;99.90;;;;;;5075884;28;20376;-82
2022/07/22 06:01:26;;;;;;;;;;;20.40;99.90;;;;;;5057821;28;19908;-83
2022/07/22 06:03:51;;;;;;;;;;;20.40;99.90;;;;;;5074642;28;19912;-79
2022/07/22 06:06:17;;;;;;;;;;;20.50;99.90;;;;;;5057851;28;19915;-83
2022/07/22 06:08:42;;;;;;;;;;;20.80;99.90;;;;;;5075684;28;19915;-81
2022/07/22 06:11:08;;;;;;;;;;;20.80;99.90;;;;;;5075802;28;19908;-79
2022/07/22 06:13:34;;;;;;;;;;;20.90;99.90;;;;;;5075477;28;20368;-83
2022/07/22 06:15:59;;;;;;;;;;;20.80;99.90;;;;;;5075896;28;19962;-82
2022/07/22 06:18:25;;;;;;;;;;;21.10;99.90;;;;;;5075729;28;19916;-83
2022/07/22 06:20:50;;;;;;;;;;;21.10;99.90;;;;;;5075411;28;19912;-82
2022/07/22 06:23:16;;;;;;;;;;;21.10;99.90;;;;;;5075906;28;20241;-81
2022/07/22 06:25:42;;;;;;;;;;;21.10;99.90;;;;;;5075266;28;19952;-82
2022/07/22 06:28:07;;;;;;;;;;;21.10;99.90;;;;;;5075385;28;19995;-82
2022/07/22 06:30:33;;;;;;;;;;;21.10;99.90;;;;;;5075266;28;19954;-83
2022/07/22 06:32:59;;;;;;;;;;;21.30;99.90;;;;;;5075192;28;19918;-79
2022/07/22 06:35:25;;;;;;;;;;;21.40;99.90;;;;;;5075492;28;19913;-81
2022/07/22 06:37:51;;;;;;;;;;;21.40;99.90;;;;;;5075092;28;19916;-83
2022/07/22 06:40:16;;;;;;;;;;;21.40;99.90;;;;;;5075318;28;20045;-82
2022/07/22 06:42:42;;;;;;;;;;;21.40;99.90;;;;;;5074821;28;20391;-83
2022/07/22 06:45:08;;;;;;;;;;;21.30;99.90;;;;;;5075211;28;20352;-80
2022/07/22 06:47:35;;;;;;;;;;;21.50;99.90;;;;;;5074816;28;19915;-84
2022/07/22 06:50:05;;;;;;;;;;;21.60;99.90;;;;;;5075135;28;19954;-81
2022/07/22 06:52:30;;;;;;;;;;;21.80;99.90;;;;;;5074789;28;20351;-82
2022/07/22 06:54:56;;;;;;;;;;;22.10;99.90;;;;;;5074612;28;20011;-81
2022/07/22 06:57:22;;;;;;;;;;;22.50;99.90;;;;;;5074690;28;20011;-81
2022/07/22 06:59:47;;;;;;;;;;;22.80;99.90;;;;;;5074779;28;19909;-81
2022/07/22 07:02:13;;;;;;;;;;;23.00;99.90;;;;;;5074599;28;19954;-83
2022/07/22 07:04:38;;;;;;;;;;;22.80;99.90;;;;;;5074589;28;19916;-81
2022/07/22 07:07:04;;;;;;;;;;;22.90;99.90;;;;;;5074536;28;19931;-82
2022/07/22 07:09:30;;;;;;;;;;;23.00;99.90;;;;;;5074491;28;19909;-80
2022/07/22 07:11:55;;;;;;;;;;;23.20;99.90;;;;;;5074449;28;19951;-80
2022/07/22 07:14:21;;;;;;;;;;;23.20;99.90;;;;;;5074067;28;20019;-83
2022/07/22 07:16:46;;;;;;;;;;;22.90;99.90;;;;;;5074375;28;19913;-81
2022/07/22 07:19:12;;;;;;;;;;;22.90;99.90;;;;;;5074220;28;19962;-81
2022/07/22 07:21:38;;;;;;;;;;;22.70;99.90;;;;;;5074219;28;19909;-81
2022/07/22 07:24:03;;;;;;;;;;;22.50;99.90;;;;;;5074783;28;19909;-79
2022/07/22 07:26:29;;;;;;;;;;;22.40;99.90;;;;;;5074175;28;19913;-81
2022/07/22 07:28:55;;;;;;;;;;;22.40;99.90;;;;;;5074171;28;19947;-82
2022/07/22 07:31:20;;;;;;;;;;;22.20;99.90;;;;;;5074066;28;19915;-79
2022/07/22 07:33:46;;;;;;;;;;;22.00;99.90;;;;;;5056080;28;19912;-79
2022/07/22 07:36:11;;;;;;;;;;;22.00;99.90;;;;;;5074485;28;19908;-81
2022/07/22 07:38:37;;;;;;;;;;;22.10;99.90;;;;;;5073938;28;19908;-82
2022/07/22 07:41:02;;;;;;;;;;;22.00;99.90;;;;;;5073709;28;19915;-83
2022/07/22 07:43:28;;;;;;;;;;;22.00;99.90;;;;;;5074340;28;19912;-82
2022/07/22 07:45:54;;;;;;;;;;;22.00;99.90;;;;;;5074044;28;19912;-80
2022/07/22 07:48:19;;;;;;;;;;;22.00;99.90;;;;;;5073767;28;19915;-83
2022/07/22 07:50:45;;;;;;;;;;;22.10;99.90;;;;;;5073806;28;19915;-81
2022/07/22 07:53:15;;;;;;;;;;;22.30;99.90;;;;;;5073813;28;19935;-81
2022/07/22 07:55:40;;;;;;;;;;;22.60;99.90;;;;;;5073705;28;19920;-84
2022/07/22 07:58:06;;;;;;;;;;;22.70;99.90;;;;;;5073672;28;19908;-84
2022/07/22 08:00:33;;;;;;;;;;;22.70;99.90;;;;;;5073688;28;19995;-84
2022/07/22 08:02:59;;;;;;;;;;;22.80;99.90;;;;;;5073593;28;19908;-79
2022/07/22 08:05:25;;;;;;;;;;;23.10;99.90;;;;;;5055586;28;19908;-81
2022/07/22 08:07:51;;;;;;;;;;;23.30;99.90;;;;;;5073681;28;20071;-85
2022/07/22 08:10:17;;;;;;;;;;;23.10;99.90;;;;;;5073683;28;19958;-81
2022/07/22 08:12:43;;;;;;;;;;;23.00;99.90;;;;;;5073937;28;19912;-83
2022/07/22 08:15:08;;;;;;;;;;;22.80;99.90;;;;;;5073539;28;19966;-80
2022/07/22 08:17:34;;;;;;;;;;;22.80;99.90;;;;;;5073808;28;19908;-83
2022/07/22 08:20:00;;;;;;;;;;;22.70;99.90;;;;;;5073925;28;20253;-82
2022/07/22 08:22:25;;;;;;;;;;;22.70;99.90;;;;;;5074568;28;19915;-83
2022/07/22 08:24:51;;;;;;;;;;;22.80;99.90;;;;;;5073673;28;19958;-79
2022/07/22 08:27:16;;;;;;;;;;;22.80;99.90;;;;;;5076174;28;19908;-83
2022/07/22 08:29:42;;;;;;;;;;;22.70;99.90;;;;;;5077622;28;19908;-81
2022/07/22 08:32:08;;;;;;;;;;;22.80;99.90;;;;;;5077532;28;19934;-82
2022/07/22 08:34:34;;;;;;;;;;;22.90;99.90;;;;;;5077514;28;19913;-80
2022/07/22 08:37:00;;;;;;;;;;;23.20;99.90;;;;;;5077408;28;19909;-81
2022/07/22 08:39:25;;;;;;;;;;;23.10;99.90;;;;;;5077355;28;19915;-79
2022/07/22 08:41:51;;;;;;;;;;;22.80;99.90;;;;;;5077070;28;19964;-80
2022/07/22 08:44:17;;;;;;;;;;;22.80;99.90;;;;;;5077424;28;19953;-82
2022/07/22 08:46:43;;;;;;;;;;;22.70;99.90;;;;;;5077495;28;19916;-79
2022/07/22 08:49:10;;;;;;;;;;;22.80;99.90;;;;;;5077164;28;19961;-81
2022/07/22 08:51:35;;;;;;;;;;;22.90;99.90;;;;;;5077174;28;20298;-82
2022/07/22 08:54:01;;;;;;;;;;;22.90;99.90;;;;;;5077120;28;19917;-82
2022/07/22 08:56:27;;;;;;;;;;;22.70;99.90;;;;;;5077042;28;19916;-83
2022/07/22 08:58:53;;;;;;;;;;;22.60;99.90;;;;;;5077054;28;20375;-81
2022/07/22 09:01:18;;;;;;;;;;;22.60;99.90;;;;;;5077006;28;20376;-79
2022/07/22 09:03:46;;;;;;;;;;;22.40;99.90;;;;;;5076897;28;19954;-80
2022/07/22 09:06:12;;;;;;;;;;;22.30;99.90;;;;;;5058960;28;20323;-81
2022/07/22 09:08:50;;;;;;;;;;;22.20;99.90;;;;;;5076954;28;19908;-81
2022/07/22 09:11:17;;;;;;;;;;;22.20;99.90;;;;;;5076857;28;19930;-78
2022/07/22 09:13:43;;;;;;;;;;;22.20;99.90;;;;;;5076924;28;19917;-80
2022/07/22 09:16:08;;;;;;;;;;;22.20;99.90;;;;;;5076876;28;19951;-82
2022/07/22 09:18:46;;;;;;;;;;;22.40;99.90;;;;;;5076950;28;19908;-82
2022/07/22 09:21:13;;;;;;;;;;;22.30;99.90;;;;;;5076676;28;19912;-83
2022/07/22 09:23:41;;;;;;;;;;;22.10;99.90;;;;;;5077204;28;20011;-84
2022/07/22 09:26:07;;;;;;;;;;;22.20;99.90;;;;;;5076455;28;20361;-82
2022/07/22 09:28:33;;;;;;;;;;;22.50;99.90;;;;;;5076629;28;19908;-81
2022/07/22 09:30:58;;;;;;;;;;;22.90;99.90;;;;;;5076514;28;20289;-82
2022/07/22 09:33:24;;;;;;;;;;;23.20;99.90;;;;;;5076381;28;20388;-83
2022/07/22 09:35:50;;;;;;;;;;;23.30;99.90;;;;;;5076345;28;19918;-81
2022/07/22 09:38:17;;;;;;;;;;;23.70;99.90;;;;;;5076579;28;19915;-79
2022/07/22 09:40:43;;;;;;;;;;;24.20;99.90;;;;;;5076256;28;19915;-82
2022/07/22 09:43:13;;;;;;;;;;;24.40;99.90;;;;;;5054573;28;20003;-81
2022/07/22 09:45:47;;;;;;;;;;;24.50;99.90;;;;;;5056596;28;20453;-82
2022/07/22 09:48:17;;;;;;;;;;;24.90;99.90;;;;;;5055481;28;20228;-83
2022/07/22 09:50:42;;;;;;;;;;;25.20;99.90;;;;;;5056096;28;20284;-81
2022/07/22 09:53:08;;;;;;;;;;;25.20;99.90;;;;;;5056043;28;19987;-82
2022/07/22 09:55:37;;;;;;;;;;;25.60;99.90;;;;;;5055897;28;19963;-81
2022/07/22 09:58:03;;;;;;;;;;;25.60;99.90;;;;;;5054662;28;19952;-80
2022/07/22 10:00:29;;;;;;;;;;;25.20;99.90;;;;;;5056079;28;19944;-79
2022/07/22 10:02:56;;;;;;;;;;;25.30;99.90;;;;;;5056312;28;19909;-83
2022/07/22 10:05:23;;;;;;;;;;;25.50;99.90;;;;;;5055663;28;19913;-83
2022/07/22 10:07:48;;;;;;;;;;;25.70;99.90;;;;;;5055665;28;19915;-83
2022/07/22 10:10:16;;;;;;;;;;;25.60;99.90;;;;;;5055728;28;19999;-81
2022/07/22 10:12:42;;;;;;;;;;;25.20;99.90;;;;;;5054262;28;20365;-82
2022/07/22 10:15:08;;;;;;;;;;;24.90;99.90;;;;;;5055492;28;19927;-81
2022/07/22 10:17:38;;;;;;;;;;;24.60;99.90;;;;;;5055530;28;19958;-81
2022/07/22 10:20:05;;;;;;;;;;;24.50;99.90;;;;;;5055696;28;19934;-82
2022/07/22 10:22:43;;;;;;;;;;;24.40;99.90;;;;;;5056159;28;19920;-83
2022/07/22 10:25:09;;;;;;;;;;;24.40;99.90;;;;;;5055468;28;19908;-81
2022/07/22 10:27:47;;;;;;;;;;;24.60;99.90;;;;;;5055274;28;19909;-81
2022/07/22 10:30:13;;;;;;;;;;;24.60;99.90;;;;;;5055452;28;19908;-80
2022/07/22 10:32:39;;;;;;;;;;;24.60;99.90;;;;;;5055352;28;19974;-81
2022/07/22 10:35:11;;;;;;;;;;;24.60;99.90;;;;;;5055200;28;19949;-83
2022/07/22 10:37:43;;;;;;;;;;;24.70;99.90;;;;;;5055128;28;19909;-83
2022/07/22 10:40:12;;;;;;;;;;;25.00;99.90;;;;;;5055344;28;20383;-84
2022/07/22 10:42:56;;;;;;;;;;;25.20;99.90;;;;;;5068864;28;19924;-85
2022/07/22 10:45:23;;;;;;;;;;;25.30;99.90;;;;;;5074987;28;20415;-82
2022/07/22 10:47:56;;;;;;;;;;;25.80;99.90;;;;;;5074858;28;19958;-82
2022/07/22 10:50:43;;;;;;;;;;;26.00;99.90;;;;;;5074425;28;20003;-83
2022/07/22 10:53:10;;;;;;;;;;;26.30;99.90;;;;;;5074890;28;19908;-83
2022/07/22 10:55:35;;;;;;;;;;;26.40;99.90;;;;;;5074633;28;20329;-83
2022/07/22 10:58:21;;;;;;;;;;;26.70;99.90;;;;;;5075058;28;19967;-82
2022/07/22 11:00:48;;;;;;;;;;;27.00;97.70;;;;;;5063719;28;19912;-81
2022/07/22 11:03:23;;;;;;;;;;;26.80;97.20;;;;;;5074591;28;20360;-83
2022/07/22 11:05:48;;;;;;;;;;;26.70;97.00;;;;;;5075065;28;20343;-82
2022/07/22 11:08:14;;;;;;;;;;;26.70;98.10;;;;;;5074433;28;20004;-83
2022/07/22 11:10:46;;;;;;;;;;;26.70;97.80;;;;;;5074564;28;19908;-83
2022/07/22 11:13:12;;;;;;;;;;;26.40;97.90;;;;;;5074708;28;20344;-82
2022/07/22 11:15:37;;;;;;;;;;;26.40;97.90;;;;;;5074283;28;19959;-80
2022/07/22 11:18:03;;;;;;;;;;;26.30;98.60;;;;;;5056375;28;19940;-84
2022/07/22 11:20:29;;;;;;;;;;;25.80;98.10;;;;;;5074207;28;20335;-83
2022/07/22 11:22:55;;;;;;;;;;;25.60;99.30;;;;;;5074817;28;19916;-80
2022/07/22 11:25:25;;;;;;;;;;;25.50;99.20;;;;;;5074209;28;20030;-83
2022/07/22 11:27:52;;;;;;;;;;;25.40;99.90;;;;;;5074173;28;19995;-80
2022/07/22 11:30:17;;;;;;;;;;;25.50;99.60;;;;;;5074191;28;19939;-82
2022/07/22 11:32:43;;;;;;;;;;;25.70;99.50;;;;;;5074057;28;19915;-85
2022/07/22 11:35:12;;;;;;;;;;;26.20;97.50;;;;;;5073961;28;20280;-81
2022/07/22 11:37:37;;;;;;;;;;;26.30;95.90;;;;;;5074088;28;19958;-84
2022/07/22 11:40:05;;;;;;;;;;;26.60;95.40;;;;;;5073929;28;19912;-80
2022/07/22 11:42:30;;;;;;;;;;;26.90;94.70;;;;;;5073655;28;19921;-84
2022/07/22 11:44:56;;;;;;;;;;;27.30;92.80;;;;;;5074252;28;19935;-83
2022/07/22 11:47:22;;;;;;;;;;;27.70;91.70;;;;;;5073932;28;19913;-83
2022/07/22 11:49:48;;;;;;;;;;;27.60;91.10;;;;;;5073788;28;20269;-84
2022/07/22 11:52:14;;;;;;;;;;;28.10;90.90;;;;;;5073815;28;19947;-82
2022/07/22 11:54:40;;;;;;;;;;;28.40;89.30;;;;;;5073652;28;19916;-84
2022/07/22 11:57:06;;;;;;;;;;;28.50;87.50;;;;;;5073765;28;19913;-83
2022/07/22 11:59:33;;;;;;;;;;;29.00;85.80;;;;;;5074158;28;20377;-82
2022/07/22 12:01:59;;;;;;;;;;;29.40;85.70;;;;;;5054711;28;20293;-82
2022/07/22 12:04:25;;;;;;;;;;;30.00;83.10;;;;;;5073997;28;19908;-83
2022/07/22 12:06:51;;;;;;;;;;;30.00;80.20;;;;;;5073704;28;19909;-81
2022/07/22 12:09:21;;;;;;;;;;;29.50;80.50;;;;;;5073589;28;20293;-82
2022/07/22 12:11:47;;;;;;;;;;;29.40;81.40;;;;;;5073731;28;19909;-82
2022/07/22 12:14:20;;;;;;;;;;;29.10;81.10;;;;;;5073411;28;19913;-81
2022/07/22 12:17:04;;;;;;;;;;;28.90;81.20;;;;;;5073574;28;19995;-82
2022/07/22 12:19:31;;;;;;;;;;;29.00;81.10;;;;;;5073815;28;19909;-83
2022/07/22 12:22:03;;;;;;;;;;;28.80;81.50;;;;;;5073731;28;20296;-80
2022/07/22 12:24:31;;;;;;;;;;;28.60;81.20;;;;;;5073990;28;19916;-82
2022/07/22 12:26:59;;;;;;;;;;;28.70;81.50;;;;;;5073458;28;19948;-84
2022/07/22 12:29:32;;;;;;;;;;;28.80;80.60;;;;;;5073589;28;20365;-82
2022/07/22 12:32:01;;;;;;;;;;;29.10;79.60;;;;;;5073362;28;20433;-84
2022/07/22 12:34:33;;;;;;;;;;;29.30;79.40;;;;;;5073262;28;20011;-83
2022/07/22 12:36:59;;;;;;;;;;;29.10;79.80;;;;;;5073334;28;19913;-84
2022/07/22 12:39:25;;;;;;;;;;;29.00;79.90;;;;;;5073463;28;19916;-84
2022/07/22 12:41:52;;;;;;;;;;;29.10;79.40;;;;;;5073208;28;20380;-81
2022/07/22 12:44:21;;;;;;;;;;;29.10;78.20;;;;;;5073294;28;19912;-83
2022/07/22 12:46:48;;;;;;;;;;;29.10;79.40;;;;;;5073445;28;19962;-81
2022/07/22 12:49:15;;;;;;;;;;;29.20;78.00;;;;;;5073265;28;19943;-82
2022/07/22 12:51:40;;;;;;;;;;;29.00;78.20;;;;;;5073417;28;19914;-81
2022/07/22 12:54:06;;;;;;;;;;;28.40;75.60;;;;;;5073124;28;20007;-82
2022/07/22 12:56:33;;;;;;;;;;;28.20;77.10;;;;;;5055058;28;20273;-80
2022/07/22 12:58:59;;;;;;;;;;;28.10;77.60;;;;;;5073155;28;20372;-84
2022/07/22 13:01:24;;;;;;;;;;;27.80;78.20;;;;;;5073123;28;19915;-83
2022/07/22 13:03:50;;;;;;;;;;;28.00;78.40;;;;;;5072827;28;19948;-82
2022/07/22 13:06:15;;;;;;;;;;;27.90;76.50;;;;;;5073213;28;20288;-84
2022/07/22 13:08:41;;;;;;;;;;;27.70;77.00;;;;;;5073019;28;19962;-81
2022/07/22 13:11:06;;;;;;;;;;;27.70;77.80;;;;;;5073043;28;19999;-81
2022/07/22 13:13:32;;;;;;;;;;;27.70;76.30;;;;;;5075854;28;19915;-84
2022/07/22 13:15:58;;;;;;;;;;;27.50;76.50;;;;;;5076691;28;20296;-81
2022/07/22 13:18:23;;;;;;;;;;;27.50;76.50;;;;;;5076638;28;19908;-81
2022/07/22 13:20:49;;;;;;;;;;;27.30;75.40;;;;;;5076500;28;19996;-83
2022/07/22 13:23:14;;;;;;;;;;;27.30;76.80;;;;;;5077092;28;20356;-81
2022/07/22 13:25:40;;;;;;;;;;;27.30;76.50;;;;;;5076623;28;19998;-82
2022/07/22 13:28:06;;;;;;;;;;;27.00;77.30;;;;;;5076453;28;20356;-82
2022/07/22 13:30:31;;;;;;;;;;;27.30;77.70;;;;;;5076445;28;19919;-82
2022/07/22 13:32:57;;;;;;;;;;;27.30;76.90;;;;;;5076311;28;19908;-82
2022/07/22 13:35:23;;;;;;;;;;;27.10;76.70;;;;;;5076266;28;20276;-84
2022/07/22 13:37:48;;;;;;;;;;;26.90;77.30;;;;;;5076559;28;19912;-84
2022/07/22 13:40:14;;;;;;;;;;;27.00;77.80;;;;;;5076393;28;20353;-84
2022/07/22 13:42:40;;;;;;;;;;;27.30;77.20;;;;;;5075981;28;19946;-81
2022/07/22 13:45:06;;;;;;;;;;;27.30;76.60;;;;;;5076325;28;19908;-83
2022/07/22 13:47:32;;;;;;;;;;;27.50;76.60;;;;;;5076169;28;19908;-82
2022/07/22 13:49:58;;;;;;;;;;;27.40;76.10;;;;;;5076044;28;19916;-82
2022/07/22 13:52:23;;;;;;;;;;;27.60;77.00;;;;;;5075963;28;19916;-85
2022/07/22 13:54:52;;;;;;;;;;;27.70;75.40;;;;;;5075864;28;20404;-83
2022/07/22 13:57:18;;;;;;;;;;;27.90;75.30;;;;;;5075873;28;20269;-81
2022/07/22 13:59:44;;;;;;;;;;;28.20;75.00;;;;;;5076104;28;19958;-81
2022/07/22 14:02:09;;;;;;;;;;;28.60;74.00;;;;;;5075923;28;19943;-84
2022/07/22 14:04:35;;;;;;;;;;;29.50;73.20;;;;;;5075741;28;19915;-85
2022/07/22 14:07:01;;;;;;;;;;;30.30;70.50;;;;;;5075664;28;20014;-82
2022/07/22 14:09:26;;;;;;;;;;;31.30;68.80;;;;;;5075609;28;19912;-85
2022/07/22 14:11:52;;;;;;;;;;;32.20;66.30;;;;;;5075633;28;19913;-83